sensor_id;sensor_type;location;lat;lon;timestamp;temperature;humidity
76172;DHT22;64929;51.178;4.138;2024-02-23T00:02:04;6.30;99.90
76172;DHT22;64929;51.178;4.138;2024-02-23T00:04:31;6.30;99.90
76172;DHT22;64929;51.178;4.138;2024-02-23T00:06:56;6.30;99.90
76172;DHT22;64929;51.178;4.138;2024-02-23T00:09:22;6.30;99.90
76172;DHT22;64929;51.178;4.138;2024-02-23T00:11:48;6.20;99.90
76172;DHT22;64929;51.178;4.138;2024-02-23T00:14:16;6.20;99.90
76172;DHT22;64929;51.178;4.138;2024-02-23T00:16:53;6.20;99.90
76172;DHT22;64929;51.178;4.138;2024-02-23T00:19:19;6.10;99.90
76172;DHT22;64929;51.178;4.138;2024-02-23T00:21:46;6.20;99.90
76172;DHT22;64929;51.178;4.138;2024-02-23T00:24:15;6.20;99.90
76172;DHT22;64929;51.178;4.138;2024-02-23T00:26:42;6.20;99.90
76172;DHT22;64929;51.178;4.138;2024-02-23T00:29:08;6.20;99.90
76172;DHT22;64929;51.178;4.138;2024-02-23T00:31:37;6.20;99.90
76172;DHT22;64929;51.178;4.138;2024-02-23T00:34:02;6.20;99.90
76172;DHT22;64929;51.178;4.138;2024-02-23T00:36:28;6.20;99.90
76172;DHT22;64929;51.178;4.138;2024-02-23T00:38:54;6.20;99.90
76172;DHT22;64929;51.178;4.138;2024-02-23T00:41:20;6.20;99.90
76172;DHT22;64929;51.178;4.138;2024-02-23T00:43:46;6.20;99.90
76172;DHT22;64929;51.178;4.138;2024-02-23T00:46:13;6.20;99.90
76172;DHT22;64929;51.178;4.138;2024-02-23T00:48:40;6.30;99.90
76172;DHT22;64929;51.178;4.138;2024-02-23T00:51:05;6.30;99.90
76172;DHT22;64929;51.178;4.138;2024-02-23T00:53:32;6.30;99.90
76172;DHT22;64929;51.178;4.138;2024-02-23T00:55:58;6.20;99.90
76172;DHT22;64929;51.178;4.138;2024-02-23T00:58:24;6.30;99.90
76172;DHT22;64929;51.178;4.138;2024-02-23T01:00:50;6.20;99.90
76172;DHT22;64929;51.178;4.138;2024-02-23T01:03:15;6.20;99.90
76172;DHT22;64929;51.178;4.138;2024-02-23T01:05:41;6.10;99.90
76172;DHT22;64929;51.178;4.138;2024-02-23T01:08:08;6.10;99.90
76172;DHT22;64929;51.178;4.138;2024-02-23T01:10:34;6.10;99.90
76172;DHT22;64929;51.178;4.138;2024-02-23T01:13:00;6.00;99.90
76172;DHT22;64929;51.178;4.138;2024-02-23T01:15:26;6.00;99.90
76172;DHT22;64929;51.178;4.138;2024-02-23T01:17:52;6.00;99.90
76172;DHT22;64929;51.178;4.138;2024-02-23T01:20:17;6.00;99.90
76172;DHT22;64929;51.178;4.138;2024-02-23T01:22:43;5.90;99.90
76172;DHT22;64929;51.178;4.138;2024-02-23T01:25:09;6.00;99.90
76172;DHT22;64929;51.178;4.138;2024-02-23T01:27:35;6.00;99.90
76172;DHT22;64929;51.178;4.138;2024-02-23T01:30:01;5.90;99.90
76172;DHT22;64929;51.178;4.138;2024-02-23T01:32:26;6.00;99.90
76172;DHT22;64929;51.178;4.138;2024-02-23T01:34:52;5.80;99.90
76172;DHT22;64929;51.178;4.138;2024-02-23T01:37:18;5.80;99.90
76172;DHT22;64929;51.178;4.138;2024-02-23T01:39:43;5.80;99.90
76172;DHT22;64929;51.178;4.138;2024-02-23T01:42:10;5.80;99.90
76172;DHT22;64929;51.178;4.138;2024-02-23T01:44:35;5.80;99.90
76172;DHT22;64929;51.178;4.138;2024-02-23T01:47:01;5.80;99.90
76172;DHT22;64929;51.178;4.138;2024-02-23T01:49:27;5.80;99.90
76172;DHT22;64929;51.178;4.138;2024-02-23T01:51:58;5.80;99.90
76172;DHT22;64929;51.178;4.138;2024-02-23T01:54:24;5.90;99.90
76172;DHT22;64929;51.178;4.138;2024-02-23T01:56:51;5.90;99.90
76172;DHT22;64929;51.178;4.138;2024-02-23T01:59:17;5.90;99.90
76172;DHT22;64929;51.178;4.138;2024-02-23T02:01:45;6.00;99.90
76172;DHT22;64929;51.178;4.138;2024-02-23T02:04:11;6.00;99.90
76172;DHT22;64929;51.178;4.138;2024-02-23T02:06:37;5.90;99.90
76172;DHT22;64929;51.178;4.138;2024-02-23T02:09:03;5.90;99.90
76172;DHT22;64929;51.178;4.138;2024-02-23T02:11:28;5.80;99.90
76172;DHT22;64929;51.178;4.138;2024-02-23T02:13:54;5.80;99.90
76172;DHT22;64929;51.178;4.138;2024-02-23T02:16:20;5.80;99.90
76172;DHT22;64929;51.178;4.138;2024-02-23T02:18:45;5.80;99.90
76172;DHT22;64929;51.178;4.138;2024-02-23T02:21:11;5.90;99.90
76172;DHT22;64929;51.178;4.138;2024-02-23T02:23:37;5.80;99.90
76172;DHT22;64929;51.178;4.138;2024-02-23T02:26:04;5.80;99.90
76172;DHT22;64929;51.178;4.138;2024-02-23T02:28:29;5.80;99.90
76172;DHT22;64929;51.178;4.138;2024-02-23T02:30:55;5.80;99.90
76172;DHT22;64929;51.178;4.138;2024-02-23T02:33:22;5.80;99.90
76172;DHT22;64929;51.178;4.138;2024-02-23T02:35:48;5.90;99.90
76172;DHT22;64929;51.178;4.138;2024-02-23T02:38:15;5.90;99.90
76172;DHT22;64929;51.178;4.138;2024-02-23T02:40:41;5.90;99.90
76172;DHT22;64929;51.178;4.138;2024-02-23T02:43:07;5.80;99.90
76172;DHT22;64929;51.178;4.138;2024-02-23T02:45:33;5.90;99.90
76172;DHT22;64929;51.178;4.138;2024-02-23T02:48:00;5.80;99.90
76172;DHT22;64929;51.178;4.138;2024-02-23T02:50:27;5.80;99.90
76172;DHT22;64929;51.178;4.138;2024-02-23T02:52:53;5.90;99.90
76172;DHT22;64929;51.178;4.138;2024-02-23T02:55:19;6.00;99.90
76172;DHT22;64929;51.178;4.138;2024-02-23T02:57:44;6.00;99.90
76172;DHT22;64929;51.178;4.138;2024-02-23T03:00:11;6.10;99.90
76172;DHT22;64929;51.178;4.138;2024-02-23T03:02:37;6.00;99.90
76172;DHT22;64929;51.178;4.138;2024-02-23T03:05:03;5.90;99.90
76172;DHT22;64929;51.178;4.138;2024-02-23T03:07:29;6.00;99.90
76172;DHT22;64929;51.178;4.138;2024-02-23T03:09:54;6.00;99.90
76172;DHT22;64929;51.178;4.138;2024-02-23T03:12:20;6.00;99.90
76172;DHT22;64929;51.178;4.138;2024-02-23T03:14:46;6.10;99.90
76172;DHT22;64929;51.178;4.138;2024-02-23T03:17:12;6.10;99.90
76172;DHT22;64929;51.178;4.138;2024-02-23T03:19:38;6.10;99.90
76172;DHT22;64929;51.178;4.138;2024-02-23T03:22:04;6.10;99.90
76172;DHT22;64929;51.178;4.138;2024-02-23T03:24:30;6.00;99.90
76172;DHT22;64929;51.178;4.138;2024-02-23T03:26:56;6.00;99.90
76172;DHT22;64929;51.178;4.138;2024-02-23T03:29:22;6.00;99.90
76172;DHT22;64929;51.178;4.138;2024-02-23T03:31:50;6.00;99.90
76172;DHT22;64929;51.178;4.138;2024-02-23T03:34:16;6.10;99.90
76172;DHT22;64929;51.178;4.138;2024-02-23T03:36:42;6.00;99.90
76172;DHT22;64929;51.178;4.138;2024-02-23T03:39:08;6.10;99.90
76172;DHT22;64929;51.178;4.138;2024-02-23T03:41:34;6.10;99.90
76172;DHT22;64929;51.178;4.138;2024-02-23T03:43:59;6.10;99.90
76172;DHT22;64929;51.178;4.138;2024-02-23T03:46:25;6.10;99.90
76172;DHT22;64929;51.178;4.138;2024-02-23T03:48:51;6.10;99.90
76172;DHT22;64929;51.178;4.138;2024-02-23T03:51:17;6.10;99.90
76172;DHT22;64929;51.178;4.138;2024-02-23T03:53:43;6.00;99.90
76172;DHT22;64929;51.178;4.138;2024-02-23T03:56:09;6.00;99.90
76172;DHT22;64929;51.178;4.138;2024-02-23T03:58:34;6.10;99.90
76172;DHT22;64929;51.178;4.138;2024-02-23T04:01:01;6.10;99.90
76172;DHT22;64929;51.178;4.138;2024-02-23T04:03:26;6.10;99.90
76172;DHT22;64929;51.178;4.138;2024-02-23T04:05:52;6.10;99.90
76172;DHT22;64929;51.178;4.138;2024-02-23T04:08:18;6.20;99.90
76172;DHT22;64929;51.178;4.138;2024-02-23T04:10:43;6.20;99.90
76172;DHT22;64929;51.178;4.138;2024-02-23T04:13:09;6.20;99.90
76172;DHT22;64929;51.178;4.138;2024-02-23T04:15:36;6.20;99.90
76172;DHT22;64929;51.178;4.138;2024-02-23T04:18:01;6.20;99.90
76172;DHT22;64929;51.178;4.138;2024-02-23T04:20:27;6.10;99.90
76172;DHT22;64929;51.178;4.138;2024-02-23T04:22:52;6.10;99.90
76172;DHT22;64929;51.178;4.138;2024-02-23T04:25:18;6.10;99.90
76172;DHT22;64929;51.178;4.138;2024-02-23T04:27:44;6.10;99.90
76172;DHT22;64929;51.178;4.138;2024-02-23T04:30:10;6.10;99.90
76172;DHT22;64929;51.178;4.138;2024-02-23T04:32:36;6.00;99.90
76172;DHT22;64929;51.178;4.138;2024-02-23T04:35:02;6.10;99.90
76172;DHT22;64929;51.178;4.138;2024-02-23T04:37:28;6.00;99.90
76172;DHT22;64929;51.178;4.138;2024-02-23T04:39:53;6.00;99.90
76172;DHT22;64929;51.178;4.138;2024-02-23T04:42:19;6.00;99.90
76172;DHT22;64929;51.178;4.138;2024-02-23T04:44:45;6.00;99.90
76172;DHT22;64929;51.178;4.138;2024-02-23T04:47:11;6.00;99.90
76172;DHT22;64929;51.178;4.138;2024-02-23T04:49:37;6.00;99.90
76172;DHT22;64929;51.178;4.138;2024-02-23T04:52:04;6.10;99.90
76172;DHT22;64929;51.178;4.138;2024-02-23T04:54:30;6.00;99.90
76172;DHT22;64929;51.178;4.138;2024-02-23T04:56:56;6.10;99.90
76172;DHT22;64929;51.178;4.138;2024-02-23T04:59:21;6.00;99.90
76172;DHT22;64929;51.178;4.138;2024-02-23T05:01:47;6.10;99.90
76172;DHT22;64929;51.178;4.138;2024-02-23T05:04:13;6.10;99.90
76172;DHT22;64929;51.178;4.138;2024-02-23T05:06:39;6.10;99.90
76172;DHT22;64929;51.178;4.138;2024-02-23T05:09:04;6.10;99.90
76172;DHT22;64929;51.178;4.138;2024-02-23T05:11:34;6.10;99.90
76172;DHT22;64929;51.178;4.138;2024-02-23T05:14:00;6.10;99.90
76172;DHT22;64929;51.178;4.138;2024-02-23T05:16:26;6.00;99.90
76172;DHT22;64929;51.178;4.138;2024-02-23T05:18:51;6.10;99.90
76172;DHT22;64929;51.178;4.138;2024-02-23T05:21:17;6.10;99.90
76172;DHT22;64929;51.178;4.138;2024-02-23T05:23:43;6.10;99.90
76172;DHT22;64929;51.178;4.138;2024-02-23T05:26:09;6.00;99.90
76172;DHT22;64929;51.178;4.138;2024-02-23T05:28:36;5.90;99.90
76172;DHT22;64929;51.178;4.138;2024-02-23T05:31:03;5.90;99.90
76172;DHT22;64929;51.178;4.138;2024-02-23T05:33:31;5.80;99.90
76172;DHT22;64929;51.178;4.138;2024-02-23T05:35:57;5.80;99.90
76172;DHT22;64929;51.178;4.138;2024-02-23T05:38:23;5.70;99.90
76172;DHT22;64929;51.178;4.138;2024-02-23T05:40:48;5.80;99.90
76172;DHT22;64929;51.178;4.138;2024-02-23T05:43:14;5.80;99.90
76172;DHT22;64929;51.178;4.138;2024-02-23T05:45:40;5.80;99.90
76172;DHT22;64929;51.178;4.138;2024-02-23T05:48:06;5.80;99.90
76172;DHT22;64929;51.178;4.138;2024-02-23T05:50:32;5.90;99.90
76172;DHT22;64929;51.178;4.138;2024-02-23T05:52:58;5.80;99.90
76172;DHT22;64929;51.178;4.138;2024-02-23T05:55:23;5.80;99.90
76172;DHT22;64929;51.178;4.138;2024-02-23T05:57:49;5.90;99.90
76172;DHT22;64929;51.178;4.138;2024-02-23T06:00:16;5.90;99.90
76172;DHT22;64929;51.178;4.138;2024-02-23T06:02:44;5.90;99.90
76172;DHT22;64929;51.178;4.138;2024-02-23T06:05:11;5.90;99.90
76172;DHT22;64929;51.178;4.138;2024-02-23T06:07:37;5.90;99.90
76172;DHT22;64929;51.178;4.138;2024-02-23T06:10:03;6.00;99.90
76172;DHT22;64929;51.178;4.138;2024-02-23T06:12:29;6.00;99.90
76172;DHT22;64929;51.178;4.138;2024-02-23T06:14:55;5.90;99.90
76172;DHT22;64929;51.178;4.138;2024-02-23T06:17:22;5.90;99.90
76172;DHT22;64929;51.178;4.138;2024-02-23T06:19:48;5.90;99.90
76172;DHT22;64929;51.178;4.138;2024-02-23T06:22:14;5.90;99.90
76172;DHT22;64929;51.178;4.138;2024-02-23T06:24:42;6.00;99.90
76172;DHT22;64929;51.178;4.138;2024-02-23T06:27:08;6.00;99.90
76172;DHT22;64929;51.178;4.138;2024-02-23T06:29:34;6.10;99.90
76172;DHT22;64929;51.178;4.138;2024-02-23T06:31:59;6.00;99.90
76172;DHT22;64929;51.178;4.138;2024-02-23T06:34:27;6.10;99.90
76172;DHT22;64929;51.178;4.138;2024-02-23T06:36:52;6.20;99.90
76172;DHT22;64929;51.178;4.138;2024-02-23T06:39:18;6.20;99.90
76172;DHT22;64929;51.178;4.138;2024-02-23T06:41:45;6.10;99.90
76172;DHT22;64929;51.178;4.138;2024-02-23T06:44:11;6.10;99.90
76172;DHT22;64929;51.178;4.138;2024-02-23T06:46:37;6.20;99.90
76172;DHT22;64929;51.178;4.138;2024-02-23T06:49:03;6.10;99.90
76172;DHT22;64929;51.178;4.138;2024-02-23T06:51:33;6.10;99.90
76172;DHT22;64929;51.178;4.138;2024-02-23T06:53:59;6.30;99.90
76172;DHT22;64929;51.178;4.138;2024-02-23T06:56:24;6.30;99.90
76172;DHT22;64929;51.178;4.138;2024-02-23T06:58:50;6.30;99.90
76172;DHT22;64929;51.178;4.138;2024-02-23T07:01:16;6.30;99.90
76172;DHT22;64929;51.178;4.138;2024-02-23T07:03:41;6.30;99.90
76172;DHT22;64929;51.178;4.138;2024-02-23T07:06:09;6.30;99.90
76172;DHT22;64929;51.178;4.138;2024-02-23T07:08:36;6.40;99.90
76172;DHT22;64929;51.178;4.138;2024-02-23T07:11:02;6.30;99.90
76172;DHT22;64929;51.178;4.138;2024-02-23T07:13:28;6.40;99.90
76172;DHT22;64929;51.178;4.138;2024-02-23T07:15:54;6.40;99.90
76172;DHT22;64929;51.178;4.138;2024-02-23T07:18:21;6.30;99.90
76172;DHT22;64929;51.178;4.138;2024-02-23T07:20:47;6.40;99.90
76172;DHT22;64929;51.178;4.138;2024-02-23T07:23:13;6.50;99.90
76172;DHT22;64929;51.178;4.138;2024-02-23T07:25:38;6.50;99.90
76172;DHT22;64929;51.178;4.138;2024-02-23T07:28:04;6.50;99.90
76172;DHT22;64929;51.178;4.138;2024-02-23T07:30:30;6.50;99.90
76172;DHT22;64929;51.178;4.138;2024-02-23T07:32:56;6.50;99.90
76172;DHT22;64929;51.178;4.138;2024-02-23T07:35:22;6.50;99.90
76172;DHT22;64929;51.178;4.138;2024-02-23T07:37:48;6.50;99.90
76172;DHT22;64929;51.178;4.138;2024-02-23T07:40:13;6.60;99.90
76172;DHT22;64929;51.178;4.138;2024-02-23T07:42:39;6.60;99.90
76172;DHT22;64929;51.178;4.138;2024-02-23T07:45:06;6.70;99.90
76172;DHT22;64929;51.178;4.138;2024-02-23T07:47:32;6.70;99.90
76172;DHT22;64929;51.178;4.138;2024-02-23T07:49:58;6.70;99.90
76172;DHT22;64929;51.178;4.138;2024-02-23T07:52:25;6.60;99.90
76172;DHT22;64929;51.178;4.138;2024-02-23T07:54:53;6.60;99.90
76172;DHT22;64929;51.178;4.138;2024-02-23T07:57:19;6.60;99.90
76172;DHT22;64929;51.178;4.138;2024-02-23T07:59:46;6.50;99.90
76172;DHT22;64929;51.178;4.138;2024-02-23T08:02:12;6.50;99.90
76172;DHT22;64929;51.178;4.138;2024-02-23T08:04:38;6.50;99.90
76172;DHT22;64929;51.178;4.138;2024-02-23T08:07:04;6.40;99.90
76172;DHT22;64929;51.178;4.138;2024-02-23T08:09:29;6.40;99.90
76172;DHT22;64929;51.178;4.138;2024-02-23T08:11:55;6.40;99.90
76172;DHT22;64929;51.178;4.138;2024-02-23T08:14:21;6.40;99.90
76172;DHT22;64929;51.178;4.138;2024-02-23T08:16:47;6.30;99.90
76172;DHT22;64929;51.178;4.138;2024-02-23T08:19:13;6.40;99.90
76172;DHT22;64929;51.178;4.138;2024-02-23T08:21:38;6.30;99.90
76172;DHT22;64929;51.178;4.138;2024-02-23T08:24:05;6.30;99.90
76172;DHT22;64929;51.178;4.138;2024-02-23T08:26:30;6.30;99.90
76172;DHT22;64929;51.178;4.138;2024-02-23T08:28:56;6.30;99.90
76172;DHT22;64929;51.178;4.138;2024-02-23T08:31:22;6.30;99.90
76172;DHT22;64929;51.178;4.138;2024-02-23T08:33:47;6.40;99.90
76172;DHT22;64929;51.178;4.138;2024-02-23T08:36:13;6.30;99.90
76172;DHT22;64929;51.178;4.138;2024-02-23T08:38:39;6.40;99.90
76172;DHT22;64929;51.178;4.138;2024-02-23T08:41:04;6.40;99.90
76172;DHT22;64929;51.178;4.138;2024-02-23T08:43:30;6.40;99.90
76172;DHT22;64929;51.178;4.138;2024-02-23T08:45:56;6.50;99.90
76172;DHT22;64929;51.178;4.138;2024-02-23T08:48:22;6.50;99.90
76172;DHT22;64929;51.178;4.138;2024-02-23T08:50:47;6.50;99.90
76172;DHT22;64929;51.178;4.138;2024-02-23T08:53:13;6.60;99.90
76172;DHT22;64929;51.178;4.138;2024-02-23T08:55:39;6.70;99.90
76172;DHT22;64929;51.178;4.138;2024-02-23T08:58:05;6.80;99.90
76172;DHT22;64929;51.178;4.138;2024-02-23T09:00:32;6.80;99.90
76172;DHT22;64929;51.178;4.138;2024-02-23T09:02:57;6.80;99.90
76172;DHT22;64929;51.178;4.138;2024-02-23T09:05:23;6.70;99.90
76172;DHT22;64929;51.178;4.138;2024-02-23T09:07:49;6.80;99.90
76172;DHT22;64929;51.178;4.138;2024-02-23T09:10:15;6.80;99.90
76172;DHT22;64929;51.178;4.138;2024-02-23T09:12:41;6.90;99.90
76172;DHT22;64929;51.178;4.138;2024-02-23T09:15:07;6.90;99.90
76172;DHT22;64929;51.178;4.138;2024-02-23T09:17:33;6.90;99.90
76172;DHT22;64929;51.178;4.138;2024-02-23T09:19:58;6.90;99.90
76172;DHT22;64929;51.178;4.138;2024-02-23T09:22:24;7.10;99.90
76172;DHT22;64929;51.178;4.138;2024-02-23T09:24:50;7.10;99.90
76172;DHT22;64929;51.178;4.138;2024-02-23T09:27:15;7.10;99.90
76172;DHT22;64929;51.178;4.138;2024-02-23T09:29:41;7.10;99.90
76172;DHT22;64929;51.178;4.138;2024-02-23T09:32:08;7.10;99.90
76172;DHT22;64929;51.178;4.138;2024-02-23T09:34:33;7.10;99.90
76172;DHT22;64929;51.178;4.138;2024-02-23T09:36:59;7.20;99.90
76172;DHT22;64929;51.178;4.138;2024-02-23T09:39:25;7.10;99.90
76172;DHT22;64929;51.178;4.138;2024-02-23T09:41:55;7.10;99.90
76172;DHT22;64929;51.178;4.138;2024-02-23T09:44:22;7.10;99.90
76172;DHT22;64929;51.178;4.138;2024-02-23T09:46:48;7.10;99.90
76172;DHT22;64929;51.178;4.138;2024-02-23T09:49:15;7.20;99.90
76172;DHT22;64929;51.178;4.138;2024-02-23T09:51:42;7.30;99.90
76172;DHT22;64929;51.178;4.138;2024-02-23T09:54:09;7.30;99.90
76172;DHT22;64929;51.178;4.138;2024-02-23T09:56:35;7.40;99.90
76172;DHT22;64929;51.178;4.138;2024-02-23T09:59:03;7.40;99.90
76172;DHT22;64929;51.178;4.138;2024-02-23T10:01:30;7.40;99.90
76172;DHT22;64929;51.178;4.138;2024-02-23T10:04:01;7.60;99.90
76172;DHT22;64929;51.178;4.138;2024-02-23T10:06:28;7.50;99.90
76172;DHT22;64929;51.178;4.138;2024-02-23T10:08:54;7.60;99.90
76172;DHT22;64929;51.178;4.138;2024-02-23T10:11:21;7.60;99.90
76172;DHT22;64929;51.178;4.138;2024-02-23T10:13:50;7.60;99.90
76172;DHT22;64929;51.178;4.138;2024-02-23T10:16:20;7.60;99.90
76172;DHT22;64929;51.178;4.138;2024-02-23T10:18:47;7.50;99.90
76172;DHT22;64929;51.178;4.138;2024-02-23T10:21:16;7.60;99.90
76172;DHT22;64929;51.178;4.138;2024-02-23T10:23:43;7.60;99.90
76172;DHT22;64929;51.178;4.138;2024-02-23T10:26:10;7.60;99.90
76172;DHT22;64929;51.178;4.138;2024-02-23T10:28:37;7.70;99.90
76172;DHT22;64929;51.178;4.138;2024-02-23T10:31:05;7.70;99.90
76172;DHT22;64929;51.178;4.138;2024-02-23T10:33:31;7.80;99.90
76172;DHT22;64929;51.178;4.138;2024-02-23T10:35:57;7.70;99.90
76172;DHT22;64929;51.178;4.138;2024-02-23T10:38:23;7.80;99.90
76172;DHT22;64929;51.178;4.138;2024-02-23T10:40:50;7.80;99.90
76172;DHT22;64929;51.178;4.138;2024-02-23T10:43:28;7.90;99.90
76172;DHT22;64929;51.178;4.138;2024-02-23T10:45:56;7.80;99.90
76172;DHT22;64929;51.178;4.138;2024-02-23T10:48:23;7.80;99.90
76172;DHT22;64929;51.178;4.138;2024-02-23T10:50:50;7.90;99.90
76172;DHT22;64929;51.178;4.138;2024-02-23T10:53:16;8.00;99.90
76172;DHT22;64929;51.178;4.138;2024-02-23T10:55:44;8.10;99.90
76172;DHT22;64929;51.178;4.138;2024-02-23T10:58:11;8.20;99.90
76172;DHT22;64929;51.178;4.138;2024-02-23T11:00:39;8.30;99.90
76172;DHT22;64929;51.178;4.138;2024-02-23T11:03:06;8.20;99.90
76172;DHT22;64929;51.178;4.138;2024-02-23T11:05:33;8.30;99.90
76172;DHT22;64929;51.178;4.138;2024-02-23T11:07:59;8.70;99.90
76172;DHT22;64929;51.178;4.138;2024-02-23T11:10:25;8.80;99.90
76172;DHT22;64929;51.178;4.138;2024-02-23T11:12:59;8.80;99.90
76172;DHT22;64929;51.178;4.138;2024-02-23T11:15:27;8.70;99.90
76172;DHT22;64929;51.178;4.138;2024-02-23T11:17:53;8.70;99.90
76172;DHT22;64929;51.178;4.138;2024-02-23T11:20:20;8.70;99.90
76172;DHT22;64929;51.178;4.138;2024-02-23T11:22:52;8.70;99.90
76172;DHT22;64929;51.178;4.138;2024-02-23T11:25:20;8.50;99.90
76172;DHT22;64929;51.178;4.138;2024-02-23T11:27:51;8.60;99.90
76172;DHT22;64929;51.178;4.138;2024-02-23T11:30:17;8.50;99.90
76172;DHT22;64929;51.178;4.138;2024-02-23T11:32:46;8.60;99.90
76172;DHT22;64929;51.178;4.138;2024-02-23T11:35:16;8.50;99.90
76172;DHT22;64929;51.178;4.138;2024-02-23T11:40:13;8.40;99.90
76172;DHT22;64929;51.178;4.138;2024-02-23T11:42:42;8.40;99.90
76172;DHT22;64929;51.178;4.138;2024-02-23T11:45:11;8.40;99.90
76172;DHT22;64929;51.178;4.138;2024-02-23T11:47:40;8.50;99.90
76172;DHT22;64929;51.178;4.138;2024-02-23T11:50:10;8.60;99.90
76172;DHT22;64929;51.178;4.138;2024-02-23T11:52:38;8.60;99.90
76172;DHT22;64929;51.178;4.138;2024-02-23T11:55:05;8.70;99.90
76172;DHT22;64929;51.178;4.138;2024-02-23T11:57:34;8.70;99.90
76172;DHT22;64929;51.178;4.138;2024-02-23T12:00:04;8.60;99.90
76172;DHT22;64929;51.178;4.138;2024-02-23T12:02:33;8.60;99.90
76172;DHT22;64929;51.178;4.138;2024-02-23T12:05:00;8.50;99.90
76172;DHT22;64929;51.178;4.138;2024-02-23T12:07:28;8.60;99.90
76172;DHT22;64929;51.178;4.138;2024-02-23T12:09:55;8.70;99.90
76172;DHT22;64929;51.178;4.138;2024-02-23T12:12:20;8.70;99.90
76172;DHT22;64929;51.178;4.138;2024-02-23T12:14:48;8.70;99.90
76172;DHT22;64929;51.178;4.138;2024-02-23T12:17:13;8.80;99.90
76172;DHT22;64929;51.178;4.138;2024-02-23T12:19:40;8.70;99.90
76172;DHT22;64929;51.178;4.138;2024-02-23T12:22:07;8.80;99.90
76172;DHT22;64929;51.178;4.138;2024-02-23T12:24:34;8.90;99.90
76172;DHT22;64929;51.178;4.138;2024-02-23T12:26:59;8.90;99.90
76172;DHT22;64929;51.178;4.138;2024-02-23T12:29:25;8.70;99.90
76172;DHT22;64929;51.178;4.138;2024-02-23T12:32:05;8.70;99.90
76172;DHT22;64929;51.178;4.138;2024-02-23T12:34:31;8.80;99.90
76172;DHT22;64929;51.178;4.138;2024-02-23T12:36:57;8.90;99.90
76172;DHT22;64929;51.178;4.138;2024-02-23T12:39:22;8.90;99.90
76172;DHT22;64929;51.178;4.138;2024-02-23T12:41:48;9.10;99.90
76172;DHT22;64929;51.178;4.138;2024-02-23T12:44:14;9.10;99.90
76172;DHT22;64929;51.178;4.138;2024-02-23T12:46:40;9.20;99.90
76172;DHT22;64929;51.178;4.138;2024-02-23T12:49:06;9.10;99.90
76172;DHT22;64929;51.178;4.138;2024-02-23T12:51:32;9.00;99.90
76172;DHT22;64929;51.178;4.138;2024-02-23T12:53:57;9.20;99.90
76172;DHT22;64929;51.178;4.138;2024-02-23T12:56:23;9.50;99.90
76172;DHT22;64929;51.178;4.138;2024-02-23T12:58:50;9.70;99.90
76172;DHT22;64929;51.178;4.138;2024-02-23T13:01:16;9.80;99.90
76172;DHT22;64929;51.178;4.138;2024-02-23T13:03:42;9.60;99.90
76172;DHT22;64929;51.178;4.138;2024-02-23T13:06:07;9.60;99.90
76172;DHT22;64929;51.178;4.138;2024-02-23T13:08:33;9.60;99.90
76172;DHT22;64929;51.178;4.138;2024-02-23T13:11:00;9.50;99.90
76172;DHT22;64929;51.178;4.138;2024-02-23T13:13:26;9.40;99.90
76172;DHT22;64929;51.178;4.138;2024-02-23T13:15:53;9.50;99.90
76172;DHT22;64929;51.178;4.138;2024-02-23T13:18:19;9.60;99.90
76172;DHT22;64929;51.178;4.138;2024-02-23T13:20:45;9.60;99.90
76172;DHT22;64929;51.178;4.138;2024-02-23T13:23:11;9.60;99.90
76172;DHT22;64929;51.178;4.138;2024-02-23T13:25:39;9.30;99.90
76172;DHT22;64929;51.178;4.138;2024-02-23T13:28:05;9.30;99.90
76172;DHT22;64929;51.178;4.138;2024-02-23T13:30:35;9.20;99.90
76172;DHT22;64929;51.178;4.138;2024-02-23T13:33:01;9.30;99.90
76172;DHT22;64929;51.178;4.138;2024-02-23T13:35:27;9.40;99.90
76172;DHT22;64929;51.178;4.138;2024-02-23T13:37:53;9.40;99.90
76172;DHT22;64929;51.178;4.138;2024-02-23T13:40:19;9.50;99.90
76172;DHT22;64929;51.178;4.138;2024-02-23T13:42:45;9.50;99.90
76172;DHT22;64929;51.178;4.138;2024-02-23T13:45:19;9.50;99.90
76172;DHT22;64929;51.178;4.138;2024-02-23T13:48:02;9.60;99.90
76172;DHT22;64929;51.178;4.138;2024-02-23T13:50:28;9.60;99.90
76172;DHT22;64929;51.178;4.138;2024-02-23T13:52:54;9.60;99.90
76172;DHT22;64929;51.178;4.138;2024-02-23T13:55:20;9.60;99.90
76172;DHT22;64929;51.178;4.138;2024-02-23T13:57:47;9.50;99.90
76172;DHT22;64929;51.178;4.138;2024-02-23T14:00:15;9.40;99.90
76172;DHT22;64929;51.178;4.138;2024-02-23T14:02:41;9.50;99.90
76172;DHT22;64929;51.178;4.138;2024-02-23T14:05:07;9.50;99.90
76172;DHT22;64929;51.178;4.138;2024-02-23T14:07:33;9.40;99.90
76172;DHT22;64929;51.178;4.138;2024-02-23T14:09:59;9.50;99.90
76172;DHT22;64929;51.178;4.138;2024-02-23T14:12:25;9.50;99.90
76172;DHT22;64929;51.178;4.138;2024-02-23T14:14:50;9.50;99.90
76172;DHT22;64929;51.178;4.138;2024-02-23T14:17:16;9.50;99.90
76172;DHT22;64929;51.178;4.138;2024-02-23T14:19:42;9.60;99.90
76172;DHT22;64929;51.178;4.138;2024-02-23T14:22:08;9.50;99.90
76172;DHT22;64929;51.178;4.138;2024-02-23T14:24:33;9.50;99.90
76172;DHT22;64929;51.178;4.138;2024-02-23T14:27:00;9.60;99.90
76172;DHT22;64929;51.178;4.138;2024-02-23T14:29:25;9.70;99.90
76172;DHT22;64929;51.178;4.138;2024-02-23T14:31:51;9.80;99.90
76172;DHT22;64929;51.178;4.138;2024-02-23T14:34:17;9.90;99.90
76172;DHT22;64929;51.178;4.138;2024-02-23T14:36:42;9.70;99.90
76172;DHT22;64929;51.178;4.138;2024-02-23T14:39:09;9.80;99.90
76172;DHT22;64929;51.178;4.138;2024-02-23T14:41:35;9.70;99.90
76172;DHT22;64929;51.178;4.138;2024-02-23T14:44:01;9.70;99.90
76172;DHT22;64929;51.178;4.138;2024-02-23T14:46:27;9.70;99.90
76172;DHT22;64929;51.178;4.138;2024-02-23T14:48:52;9.90;99.90
76172;DHT22;64929;51.178;4.138;2024-02-23T14:51:19;9.80;99.90
76172;DHT22;64929;51.178;4.138;2024-02-23T14:53:48;9.70;99.90
76172;DHT22;64929;51.178;4.138;2024-02-23T14:56:13;9.80;99.90
76172;DHT22;64929;51.178;4.138;2024-02-23T14:58:39;9.70;99.90
76172;DHT22;64929;51.178;4.138;2024-02-23T15:01:05;9.70;99.90
76172;DHT22;64929;51.178;4.138;2024-02-23T15:03:31;9.70;99.90
76172;DHT22;64929;51.178;4.138;2024-02-23T15:05:58;9.70;99.90
76172;DHT22;64929;51.178;4.138;2024-02-23T15:08:24;9.70;99.90
76172;DHT22;64929;51.178;4.138;2024-02-23T15:10:50;9.70;99.90
76172;DHT22;64929;51.178;4.138;2024-02-23T15:13:17;9.60;99.90
76172;DHT22;64929;51.178;4.138;2024-02-23T15:15:43;9.50;99.90
76172;DHT22;64929;51.178;4.138;2024-02-23T15:18:09;9.40;99.90
76172;DHT22;64929;51.178;4.138;2024-02-23T15:20:35;9.30;99.90
76172;DHT22;64929;51.178;4.138;2024-02-23T15:23:01;9.30;99.90
76172;DHT22;64929;51.178;4.138;2024-02-23T15:25:27;9.20;99.90
76172;DHT22;64929;51.178;4.138;2024-02-23T15:27:53;8.80;99.90
76172;DHT22;64929;51.178;4.138;2024-02-23T15:30:25;8.30;99.90
76172;DHT22;64929;51.178;4.138;2024-02-23T15:32:51;7.70;99.90
76172;DHT22;64929;51.178;4.138;2024-02-23T15:35:17;7.40;99.90
76172;DHT22;64929;51.178;4.138;2024-02-23T15:37:43;7.30;99.90
76172;DHT22;64929;51.178;4.138;2024-02-23T15:40:09;7.10;99.90
76172;DHT22;64929;51.178;4.138;2024-02-23T15:42:35;7.10;99.90